createdAt,value
2018-06-11T00:01:54.644Z,74.05
2018-06-11T00:04:24.221Z,74.01
2018-06-11T00:06:53.789Z,73.17
2018-06-11T00:09:23.416Z,72.91
2018-06-11T00:11:52.683Z,73.70
2018-06-11T00:14:22.228Z,74.16
2018-06-11T00:16:51.845Z,75.00
2018-06-11T00:19:21.426Z,75.01
2018-06-11T00:21:51.081Z,75.19
2018-06-11T00:24:20.603Z,75.87
2018-06-11T00:26:50.165Z,76.33
2018-06-11T00:29:19.761Z,76.72
2018-06-11T00:31:49.300Z,77.89
2018-06-11T00:34:18.887Z,78.67
2018-06-11T00:36:48.466Z,79.53
2018-06-11T00:39:18.069Z,79.90
2018-06-11T00:41:47.639Z,81.77
2018-06-11T00:44:17.252Z,81.87
2018-06-11T00:46:46.894Z,82.86
2018-06-11T00:49:16.488Z,82.40
2018-06-11T00:51:46.110Z,82.34
2018-06-11T00:54:15.734Z,82.38
2018-06-11T00:56:45.308Z,81.73
2018-06-11T00:59:14.886Z,81.96
2018-06-11T01:01:44.425Z,82.08
2018-06-11T01:04:13.981Z,81.10
2018-06-11T01:06:43.507Z,80.71
2018-06-11T01:09:13.021Z,81.34
2018-06-11T01:11:42.518Z,81.15
2018-06-11T01:14:12.070Z,82.56
2018-06-11T01:16:41.279Z,82.80
2018-06-11T01:19:10.504Z,82.40
2018-06-11T01:21:40.067Z,82.04
2018-06-11T01:24:09.595Z,82.18
2018-06-11T01:26:38.794Z,81.42
2018-06-11T01:29:08.323Z,82.00
2018-06-11T01:31:37.890Z,80.60
2018-06-11T01:34:07.190Z,80.86
2018-06-11T01:36:36.720Z,79.51
2018-06-11T01:39:08.238Z,79.32
2018-06-11T01:41:37.805Z,79.76
2018-06-11T01:44:07.402Z,80.52
2018-06-11T01:46:36.977Z,81.32
2018-06-11T01:49:06.521Z,81.66
2018-06-11T01:51:36.041Z,82.13
2018-06-11T01:54:05.572Z,81.84
2018-06-11T01:56:35.210Z,81.68
2018-06-11T01:59:04.780Z,82.04
2018-06-11T02:01:34.368Z,81.85
2018-06-11T02:04:03.905Z,81.83
2018-06-11T02:06:33.528Z,82.66
2018-06-11T02:09:03.193Z,83.23
2018-06-11T02:11:32.790Z,82.87
2018-06-11T02:14:02.347Z,82.97
2018-06-11T02:16:31.673Z,83.19
2018-06-11T02:19:01.234Z,84.21
2018-06-11T02:21:30.789Z,85.16
2018-06-11T02:24:00.325Z,85.46
2018-06-11T02:26:29.887Z,85.78
2018-06-11T02:28:59.507Z,85.95
2018-06-11T02:31:29.123Z,85.95
2018-06-11T02:33:58.764Z,86.41
2018-06-11T02:36:28.378Z,86.26
2018-06-11T02:38:57.937Z,86.17
2018-06-11T02:41:27.560Z,86.23
2018-06-11T02:43:57.171Z,86.15
2018-06-11T02:46:26.743Z,86.13
2018-06-11T02:48:56.376Z,86.96
2018-06-11T02:51:25.980Z,87.38
2018-06-11T02:53:55.634Z,87.37
2018-06-11T02:56:25.194Z,87.57
2018-06-11T02:58:54.850Z,87.84
2018-06-11T03:01:24.429Z,88.04
2018-06-11T03:03:54.034Z,88.21
2018-06-11T03:06:23.586Z,88.31
2018-06-11T03:08:52.863Z,88.65
2018-06-11T03:11:22.456Z,88.66
2018-06-11T03:13:52.035Z,88.68
2018-06-11T03:16:21.603Z,88.08
2018-06-11T03:18:51.219Z,88.67
2018-06-11T03:21:20.807Z,88.83
2018-06-11T03:23:50.390Z,88.01
2018-06-11T03:26:19.991Z,88.44
2018-06-11T03:28:49.527Z,87.90
2018-06-11T03:31:18.803Z,88.07
2018-06-11T03:33:48.385Z,87.73
2018-06-11T03:36:17.950Z,88.00
2018-06-11T03:38:47.560Z,87.55
2018-06-11T03:41:17.155Z,87.72
2018-06-11T03:43:46.797Z,87.03
2018-06-11T03:46:16.395Z,86.67
2018-06-11T03:48:46.001Z,87.04
2018-06-11T03:51:15.584Z,86.44
2018-06-11T03:53:45.131Z,86.62
2018-06-11T03:56:14.753Z,86.44
2018-06-11T03:58:44.313Z,86.20
2018-06-11T04:01:13.913Z,86.85
2018-06-11T04:03:43.363Z,86.28
2018-06-11T04:06:12.797Z,86.61
2018-06-11T04:08:42.271Z,86.98
2018-06-11T04:11:11.810Z,86.41
2018-06-11T04:13:41.207Z,86.46
2018-06-11T04:16:10.744Z,86.27
2018-06-11T04:18:40.206Z,86.46
2018-06-11T04:21:09.688Z,85.67
2018-06-11T04:23:39.211Z,85.90
2018-06-11T04:26:08.702Z,85.77
2018-06-11T04:28:38.175Z,86.36
2018-06-11T04:31:07.688Z,86.01
2018-06-11T04:33:38.057Z,85.78
2018-06-11T04:36:07.613Z,85.64
2018-06-11T04:38:37.143Z,85.46
2018-06-11T04:41:06.925Z,84.36
2018-06-11T04:43:36.733Z,84.34
2018-06-11T04:46:05.943Z,84.06
2018-06-11T04:48:35.595Z,83.86
2018-06-11T04:51:05.200Z,84.13
2018-06-11T04:53:34.756Z,83.69
2018-06-11T04:56:04.249Z,83.90
2018-06-11T04:58:33.500Z,84.32
2018-06-11T05:01:03.064Z,84.13
2018-06-11T05:03:32.550Z,85.23
2018-06-11T05:06:01.696Z,84.55
2018-06-11T05:08:31.184Z,84.15
2018-06-11T05:11:00.652Z,84.28
2018-06-11T05:13:30.020Z,84.11
2018-06-11T05:15:59.531Z,84.49
2018-06-11T05:18:29.136Z,83.97
2018-06-11T05:20:58.626Z,83.59
2018-06-11T05:23:28.262Z,82.76
2018-06-11T05:25:57.820Z,81.98
2018-06-11T05:28:27.361Z,82.06
2018-06-11T05:30:56.967Z,81.43
2018-06-11T05:33:26.390Z,80.94
2018-06-11T05:35:55.817Z,81.09
2018-06-11T05:38:25.037Z,81.61
2018-06-11T05:40:54.687Z,80.21
2018-06-11T05:43:24.467Z,80.47
2018-06-11T05:45:54.369Z,79.98
2018-06-11T05:48:24.107Z,79.51
2018-06-11T05:50:53.657Z,79.48
2018-06-11T05:53:23.208Z,79.54
2018-06-11T05:55:52.616Z,79.32
2018-06-11T05:58:22.104Z,79.20
2018-06-11T06:00:51.877Z,78.72
2018-06-11T06:03:21.313Z,77.43
2018-06-11T06:05:50.893Z,77.49
2018-06-11T06:08:20.785Z,76.38
2018-06-11T06:10:50.579Z,76.01
2018-06-11T06:13:20.585Z,75.85
2018-06-11T06:15:50.158Z,75.26
2018-06-11T06:18:19.757Z,74.65
2018-06-11T06:20:49.528Z,74.61
2018-06-11T06:23:19.134Z,73.44
2018-06-11T06:25:48.894Z,74.93
2018-06-11T06:28:18.761Z,73.96
2018-06-11T06:30:48.446Z,73.92
2018-06-11T06:33:18.046Z,76.02
2018-06-11T06:35:47.918Z,75.67
2018-06-11T06:38:17.385Z,79.19
2018-06-11T06:40:46.860Z,79.14
2018-06-11T06:43:16.736Z,78.29
2018-06-11T06:45:46.197Z,78.57
2018-06-11T06:48:15.449Z,79.08
2018-06-11T06:50:47.721Z,80.23
2018-06-11T06:53:17.397Z,82.27
2018-06-11T06:55:47.352Z,84.56
2018-06-11T06:58:17.076Z,85.58
2018-06-11T07:00:48.056Z,87.28
2018-06-11T07:03:19.025Z,87.50
2018-06-11T07:05:48.953Z,87.58
2018-06-11T07:08:19.763Z,86.54
2018-06-11T07:10:50.028Z,86.57
2018-06-11T07:13:19.510Z,85.72
2018-06-11T07:15:49.297Z,86.92
2018-06-11T07:18:22.667Z,89.81
2018-06-11T07:20:52.323Z,90.41
2018-06-11T07:23:21.972Z,90.14
2018-06-11T07:25:51.750Z,90.30
2018-06-11T07:28:21.423Z,89.46
2018-06-11T07:30:52.028Z,88.91
2018-06-11T07:33:21.792Z,87.97
2018-06-11T07:35:51.475Z,89.26
2018-06-11T07:38:21.082Z,88.39
2018-06-11T07:40:50.795Z,88.59
2018-06-11T07:43:20.315Z,88.10
2018-06-11T07:45:50.019Z,87.96
2018-06-11T07:48:19.884Z,84.90
2018-06-11T07:50:49.513Z,84.67
2018-06-11T07:53:20.811Z,83.55
2018-06-11T07:55:52.754Z,82.97
2018-06-11T07:58:23.438Z,80.19
2018-06-11T08:00:57.587Z,78.18
2018-06-11T08:03:28.126Z,78.42
2018-06-11T08:06:01.771Z,75.69
2018-06-11T08:08:35.161Z,74.69
2018-06-11T08:11:04.864Z,76.74
2018-06-11T08:13:34.518Z,79.98
2018-06-11T08:16:05.507Z,81.00
2018-06-11T08:18:36.008Z,80.76
2018-06-11T08:21:12.977Z,80.91
2018-06-11T08:23:44.034Z,81.09
2018-06-11T08:26:13.765Z,80.68
2018-06-11T08:28:47.323Z,79.38
2018-06-11T08:31:17.308Z,78.84
2018-06-11T08:33:49.761Z,77.89
2018-06-11T08:36:20.631Z,78.81
2018-06-11T08:38:50.187Z,77.79
2018-06-11T08:41:19.792Z,76.94
2018-06-11T08:43:49.441Z,76.46
2018-06-11T08:46:19.036Z,76.24
2018-06-11T08:48:49.441Z,73.55
2018-06-11T08:51:20.135Z,73.70
2018-06-11T08:53:53.268Z,72.25
2018-06-11T08:56:26.340Z,72.75
2018-06-11T08:58:56.153Z,74.58
2018-06-11T09:01:26.138Z,74.03
2018-06-11T09:03:55.688Z,74.32
2018-06-11T09:06:25.285Z,74.23
2018-06-11T09:08:55.600Z,74.06
2018-06-11T09:11:29.788Z,73.06
2018-06-11T09:13:59.654Z,73.24
2018-06-11T09:16:29.300Z,74.13
2018-06-11T09:18:59.160Z,70.40
2018-06-11T09:21:29.307Z,67.69
2018-06-11T09:23:59.919Z,65.94
2018-06-11T09:26:32.017Z,67.77
2018-06-11T09:44:35.757Z,66.47
2018-06-11T09:47:05.260Z,65.47
2018-06-11T09:49:34.818Z,65.70
2018-06-11T09:52:08.624Z,69.32
2018-06-11T09:54:39.163Z,67.12
2018-06-11T09:57:11.020Z,66.30
2018-06-11T09:59:40.642Z,65.24
2018-06-11T10:02:11.762Z,64.99
2018-06-11T10:04:46.097Z,63.77
2018-06-11T10:07:17.914Z,64.61
2018-06-11T10:09:47.679Z,64.65
2018-06-11T10:12:17.628Z,62.63
2018-06-11T10:14:47.171Z,64.18
2018-06-11T10:17:17.873Z,65.25
2018-06-11T10:19:47.590Z,64.40
2018-06-11T10:22:21.847Z,62.64
2018-06-11T10:24:51.503Z,60.58
2018-06-11T10:27:22.765Z,60.61
2018-06-11T10:29:52.622Z,58.30
2018-06-11T10:32:27.774Z,58.90
2018-06-11T10:34:57.328Z,58.22
2018-06-11T10:37:27.052Z,56.06
2018-06-11T10:39:56.685Z,53.54
2018-06-11T10:42:26.175Z,53.98
2018-06-11T10:44:55.600Z,55.94
2018-06-11T10:47:26.176Z,54.58
2018-06-11T10:49:55.740Z,55.55
2018-06-11T10:52:26.449Z,55.51
2018-06-11T10:54:56.240Z,56.24
2018-06-11T10:57:26.126Z,55.14
2018-06-11T10:59:55.807Z,56.85
2018-06-11T11:02:25.379Z,57.73
2018-06-11T11:04:55.595Z,58.66
2018-06-11T11:07:25.973Z,59.62
2018-06-11T11:09:55.583Z,59.76
2018-06-11T11:12:24.913Z,61.55
2018-06-11T11:14:54.680Z,61.66
2018-06-11T11:17:24.228Z,62.28
2018-06-11T11:20:06.318Z,63.28
2018-06-11T11:22:35.978Z,64.04
2018-06-11T11:25:05.667Z,65.43
2018-06-11T11:27:35.316Z,65.22
2018-06-11T11:30:06.132Z,67.01
2018-06-11T11:32:35.924Z,67.37
2018-06-11T11:35:05.689Z,66.97
2018-06-11T11:37:36.528Z,68.08
2018-06-11T11:40:06.699Z,69.08
2018-06-11T11:42:36.225Z,71.06
2018-06-11T11:45:05.703Z,71.61
2018-06-11T11:47:35.233Z,72.63
2018-06-11T11:50:05.113Z,72.83
2018-06-11T11:52:35.505Z,74.70
2018-06-11T11:55:08.849Z,75.24
2018-06-11T11:57:40.291Z,76.74
2018-06-11T12:00:10.099Z,77.37
2018-06-11T12:02:39.690Z,76.87
2018-06-11T12:05:12.206Z,76.40
2018-06-11T12:07:46.185Z,77.85
2018-06-11T12:10:16.736Z,79.19
2018-06-11T12:12:46.539Z,81.33
2018-06-11T12:15:16.205Z,80.45
2018-06-11T12:17:45.864Z,81.52
2018-06-11T12:20:15.417Z,80.89
2018-06-11T12:22:44.939Z,83.54
2018-06-11T12:25:14.644Z,84.06
2018-06-11T12:27:44.345Z,82.51
2018-06-11T12:30:13.919Z,80.27
2018-06-11T12:32:43.542Z,79.10
2018-06-11T12:35:12.865Z,76.48
2018-06-11T12:37:42.475Z,77.33
2018-06-11T12:40:12.059Z,77.92
2018-06-11T12:42:41.675Z,80.73
2018-06-11T12:45:11.210Z,82.00
2018-06-11T12:47:40.720Z,80.49
2018-06-11T12:50:10.278Z,78.46
2018-06-11T12:52:40.046Z,77.92
2018-06-11T12:55:09.642Z,79.74
2018-06-11T12:57:39.929Z,77.15
2018-06-11T13:00:09.290Z,76.02
2018-06-11T13:02:38.903Z,77.04
2018-06-11T13:05:08.680Z,75.00
2018-06-11T13:07:38.395Z,74.46
2018-06-11T13:10:08.968Z,73.14
2018-06-11T13:12:38.573Z,70.23
2018-06-11T13:15:08.299Z,69.50
2018-06-11T13:17:37.677Z,67.64
2018-06-11T13:20:07.494Z,67.14
2018-06-11T13:22:37.224Z,66.57
2018-06-11T13:25:06.691Z,65.94
2018-06-11T13:27:36.461Z,66.54
2018-06-11T13:30:09.033Z,65.78
2018-06-11T13:32:38.684Z,65.16
2018-06-11T13:35:08.597Z,66.09
2018-06-11T13:37:38.980Z,63.61
2018-06-11T13:40:08.583Z,62.60
2018-06-11T13:42:38.084Z,62.88
2018-06-11T13:45:07.759Z,64.29
2018-06-11T13:47:37.256Z,63.67
2018-06-11T13:50:06.966Z,62.76
2018-06-11T13:52:40.413Z,63.13
2018-06-11T13:55:11.711Z,62.54
2018-06-11T13:57:46.083Z,64.17
2018-06-11T14:00:17.844Z,64.55
2018-06-11T14:02:47.485Z,66.10
2018-06-11T14:05:17.172Z,65.91
2018-06-11T14:07:48.162Z,66.39
2018-06-11T14:10:18.480Z,66.28
2018-06-11T14:12:48.149Z,68.33
2018-06-11T14:15:18.759Z,68.34
2018-06-11T14:17:48.309Z,67.19
2018-06-11T14:20:17.899Z,68.03
2018-06-11T14:22:47.507Z,67.87
2018-06-11T14:25:17.142Z,69.27
2018-06-11T14:27:46.773Z,68.78
2018-06-11T14:30:16.124Z,70.24
2018-06-11T14:32:45.969Z,70.16
2018-06-11T14:35:15.352Z,70.15
2018-06-11T14:37:45.056Z,69.69
2018-06-11T14:40:14.728Z,70.92
2018-06-11T14:42:44.308Z,71.16
2018-06-11T14:45:13.760Z,70.81
2018-06-11T14:47:43.309Z,71.22
2018-06-11T14:50:12.941Z,72.42
2018-06-11T14:52:44.870Z,72.17
2018-06-11T14:55:14.765Z,73.35
2018-06-11T14:57:44.949Z,73.40
2018-06-11T15:00:16.658Z,73.85
2018-06-11T15:02:46.309Z,73.46
2018-06-11T15:05:15.824Z,72.83
2018-06-11T15:07:47.540Z,71.01
2018-06-11T15:10:16.876Z,71.67
2018-06-11T15:12:46.563Z,71.33
2018-06-11T15:15:16.241Z,72.06
2018-06-11T15:17:45.932Z,71.45
2018-06-11T15:20:16.287Z,71.15
2018-06-11T15:22:46.694Z,71.21
2018-06-11T15:25:17.483Z,71.25
2018-06-11T15:27:47.698Z,71.79
2018-06-11T15:30:17.165Z,73.21
2018-06-11T15:32:47.585Z,72.76
2018-06-11T15:35:17.052Z,72.86
2018-06-11T15:37:46.779Z,72.69
2018-06-11T15:40:16.304Z,72.41
2018-06-11T15:42:45.808Z,72.28
2018-06-11T15:45:15.417Z,76.51
2018-06-11T15:47:44.948Z,78.03
2018-06-11T15:50:14.261Z,81.58
2018-06-11T15:52:44.279Z,81.87
2018-06-11T15:55:13.866Z,82.50
2018-06-11T15:57:44.501Z,82.45
2018-06-11T16:00:15.107Z,83.29
2018-06-11T16:02:44.970Z,83.19
2018-06-11T16:05:14.780Z,83.76
2018-06-11T16:07:44.968Z,82.70
2018-06-11T16:10:14.607Z,82.52
2018-06-11T16:12:44.279Z,82.84
2018-06-11T16:15:13.992Z,81.91
2018-06-11T16:17:43.702Z,82.69
2018-06-11T16:20:13.316Z,82.58
2018-06-11T16:22:43.023Z,83.43
2018-06-11T16:25:14.604Z,83.46
2018-06-11T16:27:44.169Z,82.67
2018-06-11T16:30:14.068Z,82.82
2018-06-11T16:32:43.831Z,83.38
2018-06-11T16:35:13.422Z,83.39
2018-06-11T16:37:43.100Z,82.57
2018-06-11T16:40:12.576Z,81.73
2018-06-11T16:42:42.069Z,82.38
2018-06-11T16:45:11.730Z,81.10
2018-06-11T16:47:41.359Z,81.64
2018-06-11T16:50:11.249Z,82.25
2018-06-11T16:52:41.653Z,81.28
2018-06-11T16:55:11.526Z,80.08
2018-06-11T16:57:41.227Z,80.58
2018-06-11T17:00:11.930Z,80.89
2018-06-11T17:02:42.958Z,83.48
2018-06-11T17:05:12.619Z,83.45
2018-06-11T17:07:43.051Z,83.33
2018-06-11T17:10:12.650Z,82.47
2018-06-11T17:12:42.821Z,83.76
2018-06-11T17:15:12.422Z,86.61
2018-06-11T17:17:41.721Z,88.11
2018-06-11T17:20:11.141Z,88.82
2018-06-11T17:22:40.670Z,89.69
2018-06-11T17:25:09.743Z,91.03
2018-06-11T17:27:39.034Z,91.38
2018-06-11T17:30:08.273Z,91.48
2018-06-11T17:32:37.240Z,92.85
2018-06-11T17:35:06.423Z,93.52
2018-06-11T17:37:35.619Z,94.52
2018-06-11T17:40:04.831Z,94.74
2018-06-11T17:42:34.030Z,95.75
2018-06-11T17:45:03.212Z,94.43
2018-06-11T17:47:32.402Z,94.57
2018-06-11T17:50:01.619Z,94.73
2018-06-11T17:52:30.825Z,94.86
2018-06-11T17:55:00.039Z,94.81
2018-06-11T17:57:29.275Z,94.67
2018-06-11T17:59:58.473Z,95.00
2018-06-11T18:02:27.640Z,95.76
2018-06-11T18:04:56.830Z,95.39
2018-06-11T18:07:25.764Z,94.88
2018-06-11T18:09:54.955Z,95.09
2018-06-11T18:12:24.148Z,95.19
2018-06-11T18:14:53.334Z,95.39
2018-06-11T18:17:22.519Z,94.96
2018-06-11T18:19:51.696Z,94.80
2018-06-11T18:22:20.862Z,94.90
2018-06-11T18:24:50.046Z,95.31
2018-06-11T18:27:19.218Z,95.85
2018-06-11T18:29:48.397Z,96.20
2018-06-11T18:32:17.566Z,95.88
2018-06-11T18:34:46.762Z,95.58
2018-06-11T18:37:15.938Z,95.57
2018-06-11T18:39:45.109Z,95.86
2018-06-11T18:42:14.289Z,95.78
2018-06-11T18:44:43.482Z,96.62
2018-06-11T18:47:12.650Z,96.34
2018-06-11T18:49:41.839Z,96.41
2018-06-11T18:52:11.010Z,95.68
2018-06-11T18:54:40.200Z,95.25
2018-06-11T18:57:09.372Z,95.96
2018-06-11T18:59:38.573Z,95.26
2018-06-11T19:02:07.793Z,95.34
2018-06-11T19:04:37.000Z,95.38
2018-06-11T19:07:06.210Z,95.06
2018-06-11T19:09:35.408Z,97.22
2018-06-11T19:12:04.637Z,96.44
2018-06-11T19:14:33.915Z,96.30
2018-06-11T19:17:03.388Z,96.19
2018-06-11T19:19:32.602Z,95.58
2018-06-11T19:22:01.798Z,95.45
2018-06-11T19:24:31.004Z,95.79
2018-06-11T19:27:00.209Z,95.58
2018-06-11T19:29:29.396Z,95.73
2018-06-11T19:31:58.629Z,96.46
2018-06-11T19:34:27.817Z,97.08
2018-06-11T19:36:57.025Z,97.03
2018-06-11T19:39:26.289Z,96.90
2018-06-11T19:41:55.514Z,96.79
2018-06-11T19:44:24.712Z,96.44
2018-06-11T19:46:53.922Z,97.08
2018-06-11T19:49:23.113Z,96.78
2018-06-11T19:51:52.316Z,96.85
2018-06-11T19:54:21.293Z,96.28
2018-06-11T19:56:50.509Z,96.46
2018-06-11T19:59:19.460Z,96.32
2018-06-11T20:01:48.662Z,95.53
2018-06-11T20:04:17.841Z,95.12
2018-06-11T20:06:47.015Z,95.13
2018-06-11T20:09:16.207Z,95.92
2018-06-11T20:11:45.372Z,95.86
2018-06-11T20:14:14.561Z,97.20
2018-06-11T20:16:43.820Z,96.93
2018-06-11T20:19:13.000Z,97.26
2018-06-11T20:21:42.166Z,97.52
2018-06-11T20:24:11.338Z,97.24
2018-06-11T20:26:40.629Z,96.99
2018-06-11T20:29:09.847Z,97.38
2018-06-11T20:31:39.005Z,97.36
2018-06-11T20:34:08.212Z,97.30
2018-06-11T20:36:37.374Z,96.96
2018-06-11T20:39:07.972Z,97.40
2018-06-11T20:41:37.150Z,97.53
2018-06-11T20:44:06.369Z,97.49
2018-06-11T20:46:35.680Z,97.05
2018-06-11T20:49:04.829Z,97.37
2018-06-11T20:51:33.999Z,97.17
2018-06-11T20:54:03.177Z,97.11
2018-06-11T20:56:32.348Z,97.12
2018-06-11T20:59:01.527Z,97.34
2018-06-11T21:01:30.705Z,97.58
2018-06-11T21:03:59.971Z,97.49
2018-06-11T21:06:29.005Z,96.85
2018-06-11T21:08:58.212Z,96.70
2018-06-11T21:11:27.417Z,96.52
2018-06-11T21:13:56.639Z,96.78
2018-06-11T21:16:25.806Z,96.47
2018-06-11T21:18:54.997Z,96.84
2018-06-11T21:21:24.244Z,96.65
2018-06-11T21:23:53.473Z,96.89
2018-06-11T21:26:22.733Z,97.10
2018-06-11T21:28:51.996Z,96.67
2018-06-11T21:31:21.211Z,96.63
2018-06-11T21:33:50.401Z,96.41
2018-06-11T21:36:19.606Z,96.82
2018-06-11T21:38:48.810Z,96.60
2018-06-11T21:41:18.019Z,96.84
2018-06-11T21:43:47.228Z,97.69
2018-06-11T21:46:16.429Z,96.94
2018-06-11T21:48:45.398Z,96.73
2018-06-11T21:51:14.596Z,96.27
2018-06-11T21:53:43.797Z,96.78
2018-06-11T21:56:13.136Z,96.39
2018-06-11T21:58:42.357Z,96.59
2018-06-11T22:01:11.532Z,96.85
2018-06-11T22:03:40.820Z,96.64
2018-06-11T22:06:09.704Z,96.22
2018-06-11T22:08:38.663Z,96.36
2018-06-11T22:11:07.818Z,96.61
2018-06-11T22:13:37.023Z,96.32
2018-06-11T22:16:06.209Z,96.18
2018-06-11T22:18:35.369Z,95.92
2018-06-11T22:21:04.536Z,95.96
2018-06-11T22:23:33.813Z,95.78
2018-06-11T22:26:03.041Z,96.66
2018-06-11T22:28:32.232Z,96.67
2018-06-11T22:31:01.478Z,96.65
2018-06-11T22:33:30.641Z,96.24
2018-06-11T22:35:59.813Z,96.85
2018-06-11T22:38:28.984Z,96.78
2018-06-11T22:40:58.144Z,96.58
2018-06-11T22:43:27.312Z,96.49
2018-06-11T22:45:56.480Z,96.39
2018-06-11T22:48:25.646Z,96.47
2018-06-11T22:50:54.823Z,96.17
2018-06-11T22:53:24.020Z,95.91
2018-06-11T22:55:53.179Z,95.95
2018-06-11T22:58:22.343Z,96.03
2018-06-11T23:00:51.556Z,96.83
2018-06-11T23:03:20.753Z,96.87
2018-06-11T23:05:49.949Z,97.21
2018-06-11T23:08:19.148Z,97.03
2018-06-11T23:10:48.356Z,97.21
2018-06-11T23:13:17.540Z,96.59
2018-06-11T23:15:46.750Z,96.94
2018-06-11T23:18:15.939Z,96.91
2018-06-11T23:20:45.180Z,96.33
2018-06-11T23:23:14.381Z,96.36
2018-06-11T23:25:43.573Z,96.70
2018-06-11T23:28:12.768Z,96.65
2018-06-11T23:30:41.973Z,96.46
2018-06-11T23:33:11.161Z,96.36
2018-06-11T23:35:43.290Z,96.83
2018-06-11T23:38:12.454Z,96.79
2018-06-11T23:40:41.621Z,96.77
2018-06-11T23:43:10.786Z,96.43
2018-06-11T23:45:39.956Z,97.01
2018-06-11T23:48:08.907Z,96.30
2018-06-11T23:50:38.078Z,97.12
2018-06-11T23:53:07.247Z,97.13
2018-06-11T23:55:36.191Z,96.93
2018-06-11T23:58:05.530Z,97.33
